sensor_id;sensor_type;location;lat;lon;timestamp;P1;durP1;ratioP1;P2;durP2;ratioP2
79566;SDS011;69030;48.126;7.816;2023-09-12T00:01:06;8.27;;;5.20;;
79566;SDS011;69030;48.126;7.816;2023-09-12T00:03:32;8.75;;;5.32;;
79566;SDS011;69030;48.126;7.816;2023-09-12T00:05:59;7.75;;;5.75;;
79566;SDS011;69030;48.126;7.816;2023-09-12T00:08:25;10.13;;;5.95;;
79566;SDS011;69030;48.126;7.816;2023-09-12T00:11:07;9.63;;;5.90;;
79566;SDS011;69030;48.126;7.816;2023-09-12T00:13:36;11.00;;;5.65;;
79566;SDS011;69030;48.126;7.816;2023-09-12T00:16:03;9.98;;;6.30;;
79566;SDS011;69030;48.126;7.816;2023-09-12T00:18:30;12.48;;;5.72;;
79566;SDS011;69030;48.126;7.816;2023-09-12T00:20:55;7.53;;;5.63;;
79566;SDS011;69030;48.126;7.816;2023-09-12T00:23:22;16.52;;;5.90;;
79566;SDS011;69030;48.126;7.816;2023-09-12T00:25:49;8.63;;;5.93;;
79566;SDS011;69030;48.126;7.816;2023-09-12T00:28:17;7.32;;;5.55;;
79566;SDS011;69030;48.126;7.816;2023-09-12T00:30:43;10.73;;;6.03;;
79566;SDS011;69030;48.126;7.816;2023-09-12T00:33:08;11.80;;;5.60;;
79566;SDS011;69030;48.126;7.816;2023-09-12T00:35:33;8.80;;;5.88;;
79566;SDS011;69030;48.126;7.816;2023-09-12T00:40:34;9.30;;;6.32;;
79566;SDS011;69030;48.126;7.816;2023-09-12T00:43:00;9.30;;;5.40;;
79566;SDS011;69030;48.126;7.816;2023-09-12T00:45:25;8.80;;;5.38;;
79566;SDS011;69030;48.126;7.816;2023-09-12T00:47:51;10.38;;;5.90;;
79566;SDS011;69030;48.126;7.816;2023-09-12T00:50:17;8.40;;;5.90;;
79566;SDS011;69030;48.126;7.816;2023-09-12T00:52:44;9.25;;;6.30;;
79566;SDS011;69030;48.126;7.816;2023-09-12T00:55:10;7.38;;;5.13;;
79566;SDS011;69030;48.126;7.816;2023-09-12T00:57:38;10.15;;;5.88;;
79566;SDS011;69030;48.126;7.816;2023-09-12T01:00:04;9.30;;;5.90;;
79566;SDS011;69030;48.126;7.816;2023-09-12T01:02:40;11.88;;;6.10;;
79566;SDS011;69030;48.126;7.816;2023-09-12T01:05:08;11.07;;;6.65;;
79566;SDS011;69030;48.126;7.816;2023-09-12T01:07:36;12.25;;;5.13;;
79566;SDS011;69030;48.126;7.816;2023-09-12T01:10:02;11.85;;;6.40;;
79566;SDS011;69030;48.126;7.816;2023-09-12T01:12:29;9.23;;;5.55;;
79566;SDS011;69030;48.126;7.816;2023-09-12T01:14:54;9.77;;;5.70;;
79566;SDS011;69030;48.126;7.816;2023-09-12T01:17:20;14.40;;;6.82;;
79566;SDS011;69030;48.126;7.816;2023-09-12T01:19:45;8.20;;;6.22;;
79566;SDS011;69030;48.126;7.816;2023-09-12T01:25:24;12.45;;;5.57;;
79566;SDS011;69030;48.126;7.816;2023-09-12T01:28:02;15.70;;;6.15;;
79566;SDS011;69030;48.126;7.816;2023-09-12T01:30:31;8.57;;;5.82;;
79566;SDS011;69030;48.126;7.816;2023-09-12T01:32:57;9.18;;;5.72;;
79566;SDS011;69030;48.126;7.816;2023-09-12T01:35:24;8.98;;;6.03;;
79566;SDS011;69030;48.126;7.816;2023-09-12T01:37:49;9.40;;;5.90;;
79566;SDS011;69030;48.126;7.816;2023-09-12T01:40:15;8.77;;;5.97;;
79566;SDS011;69030;48.126;7.816;2023-09-12T01:42:45;9.55;;;5.90;;
79566;SDS011;69030;48.126;7.816;2023-09-12T01:45:14;8.82;;;5.45;;
79566;SDS011;69030;48.126;7.816;2023-09-12T01:47:41;10.55;;;6.28;;
79566;SDS011;69030;48.126;7.816;2023-09-12T01:50:08;11.73;;;6.68;;
79566;SDS011;69030;48.126;7.816;2023-09-12T01:52:35;10.02;;;6.30;;
79566;SDS011;69030;48.126;7.816;2023-09-12T01:55:01;8.52;;;5.97;;
79566;SDS011;69030;48.126;7.816;2023-09-12T02:00:09;10.25;;;5.13;;
79566;SDS011;69030;48.126;7.816;2023-09-12T02:02:38;10.63;;;6.05;;
79566;SDS011;69030;48.126;7.816;2023-09-12T02:08:00;11.45;;;6.22;;
79566;SDS011;69030;48.126;7.816;2023-09-12T02:10:26;9.93;;;6.25;;
79566;SDS011;69030;48.126;7.816;2023-09-12T02:12:52;9.40;;;5.82;;
79566;SDS011;69030;48.126;7.816;2023-09-12T02:15:18;10.13;;;6.82;;
79566;SDS011;69030;48.126;7.816;2023-09-12T02:17:43;7.38;;;5.28;;
79566;SDS011;69030;48.126;7.816;2023-09-12T02:20:09;9.77;;;5.57;;
79566;SDS011;69030;48.126;7.816;2023-09-12T02:22:38;9.40;;;5.45;;
79566;SDS011;69030;48.126;7.816;2023-09-12T02:25:05;10.50;;;6.05;;
79566;SDS011;69030;48.126;7.816;2023-09-12T02:27:30;12.45;;;5.28;;
79566;SDS011;69030;48.126;7.816;2023-09-12T02:29:56;9.07;;;5.78;;
79566;SDS011;69030;48.126;7.816;2023-09-12T02:32:21;10.85;;;4.28;;
79566;SDS011;69030;48.126;7.816;2023-09-12T02:34:47;8.68;;;6.00;;
79566;SDS011;69030;48.126;7.816;2023-09-12T02:37:13;9.65;;;5.10;;
79566;SDS011;69030;48.126;7.816;2023-09-12T02:39:40;8.23;;;5.40;;
79566;SDS011;69030;48.126;7.816;2023-09-12T02:42:06;11.63;;;6.50;;
79566;SDS011;69030;48.126;7.816;2023-09-12T02:44:31;9.23;;;4.90;;
79566;SDS011;69030;48.126;7.816;2023-09-12T02:46:57;10.23;;;5.55;;
79566;SDS011;69030;48.126;7.816;2023-09-12T02:49:22;10.40;;;4.85;;
79566;SDS011;69030;48.126;7.816;2023-09-12T02:51:48;9.45;;;6.63;;
79566;SDS011;69030;48.126;7.816;2023-09-12T02:54:13;9.13;;;6.63;;
79566;SDS011;69030;48.126;7.816;2023-09-12T02:56:38;8.50;;;5.03;;
79566;SDS011;69030;48.126;7.816;2023-09-12T02:59:04;11.18;;;5.78;;
79566;SDS011;69030;48.126;7.816;2023-09-12T03:01:35;8.50;;;5.35;;
79566;SDS011;69030;48.126;7.816;2023-09-12T03:04:01;11.02;;;4.95;;
79566;SDS011;69030;48.126;7.816;2023-09-12T03:06:28;9.85;;;6.40;;
79566;SDS011;69030;48.126;7.816;2023-09-12T03:08:58;8.10;;;6.57;;
79566;SDS011;69030;48.126;7.816;2023-09-12T03:11:26;9.60;;;5.88;;
79566;SDS011;69030;48.126;7.816;2023-09-12T03:13:55;8.85;;;5.63;;
79566;SDS011;69030;48.126;7.816;2023-09-12T03:16:20;8.82;;;6.82;;
79566;SDS011;69030;48.126;7.816;2023-09-12T03:18:48;10.45;;;5.45;;
79566;SDS011;69030;48.126;7.816;2023-09-12T03:21:13;10.52;;;5.57;;
79566;SDS011;69030;48.126;7.816;2023-09-12T03:23:39;8.27;;;5.05;;
79566;SDS011;69030;48.126;7.816;2023-09-12T03:26:05;8.85;;;5.78;;
79566;SDS011;69030;48.126;7.816;2023-09-12T03:28:31;8.45;;;5.85;;
79566;SDS011;69030;48.126;7.816;2023-09-12T03:31:05;10.32;;;5.65;;
79566;SDS011;69030;48.126;7.816;2023-09-12T03:33:32;10.80;;;5.28;;
79566;SDS011;69030;48.126;7.816;2023-09-12T03:35:57;8.70;;;5.28;;
79566;SDS011;69030;48.126;7.816;2023-09-12T03:38:23;11.30;;;5.25;;
79566;SDS011;69030;48.126;7.816;2023-09-12T03:40:49;10.10;;;5.57;;
79566;SDS011;69030;48.126;7.816;2023-09-12T03:43:14;10.95;;;5.13;;
79566;SDS011;69030;48.126;7.816;2023-09-12T03:45:40;9.18;;;6.28;;
79566;SDS011;69030;48.126;7.816;2023-09-12T03:48:05;10.95;;;6.00;;
79566;SDS011;69030;48.126;7.816;2023-09-12T03:50:31;9.68;;;6.22;;
79566;SDS011;69030;48.126;7.816;2023-09-12T03:52:57;8.65;;;5.43;;
79566;SDS011;69030;48.126;7.816;2023-09-12T03:55:22;8.73;;;5.57;;
79566;SDS011;69030;48.126;7.816;2023-09-12T03:57:48;8.77;;;5.93;;
79566;SDS011;69030;48.126;7.816;2023-09-12T04:00:14;11.00;;;6.47;;
79566;SDS011;69030;48.126;7.816;2023-09-12T04:02:40;10.25;;;6.35;;
79566;SDS011;69030;48.126;7.816;2023-09-12T04:05:05;9.77;;;5.18;;
79566;SDS011;69030;48.126;7.816;2023-09-12T04:07:31;11.45;;;5.78;;
79566;SDS011;69030;48.126;7.816;2023-09-12T04:09:57;9.23;;;4.97;;
79566;SDS011;69030;48.126;7.816;2023-09-12T04:12:22;9.98;;;5.65;;
79566;SDS011;69030;48.126;7.816;2023-09-12T04:14:49;8.65;;;5.65;;
79566;SDS011;69030;48.126;7.816;2023-09-12T04:17:15;9.32;;;5.82;;
79566;SDS011;69030;48.126;7.816;2023-09-12T04:19:41;8.35;;;5.70;;
79566;SDS011;69030;48.126;7.816;2023-09-12T04:22:07;9.25;;;5.45;;
79566;SDS011;69030;48.126;7.816;2023-09-12T04:24:32;11.38;;;6.15;;
79566;SDS011;69030;48.126;7.816;2023-09-12T04:26:58;9.88;;;6.78;;
79566;SDS011;69030;48.126;7.816;2023-09-12T04:29:23;11.23;;;6.68;;
79566;SDS011;69030;48.126;7.816;2023-09-12T04:31:49;9.43;;;5.32;;
79566;SDS011;69030;48.126;7.816;2023-09-12T04:34:15;9.07;;;6.13;;
79566;SDS011;69030;48.126;7.816;2023-09-12T04:36:41;10.32;;;6.13;;
79566;SDS011;69030;48.126;7.816;2023-09-12T04:39:09;8.52;;;6.38;;
79566;SDS011;69030;48.126;7.816;2023-09-12T04:41:34;10.52;;;6.43;;
79566;SDS011;69030;48.126;7.816;2023-09-12T04:44:00;8.85;;;5.18;;
79566;SDS011;69030;48.126;7.816;2023-09-12T04:46:28;8.13;;;5.80;;
79566;SDS011;69030;48.126;7.816;2023-09-12T04:48:54;13.82;;;6.35;;
79566;SDS011;69030;48.126;7.816;2023-09-12T04:51:19;10.20;;;5.68;;
79566;SDS011;69030;48.126;7.816;2023-09-12T04:53:45;9.07;;;5.88;;
79566;SDS011;69030;48.126;7.816;2023-09-12T04:56:11;13.07;;;6.80;;
79566;SDS011;69030;48.126;7.816;2023-09-12T04:58:37;8.93;;;6.70;;
79566;SDS011;69030;48.126;7.816;2023-09-12T05:01:02;8.15;;;5.47;;
79566;SDS011;69030;48.126;7.816;2023-09-12T05:03:28;8.85;;;6.55;;
79566;SDS011;69030;48.126;7.816;2023-09-12T05:05:56;8.95;;;5.85;;
79566;SDS011;69030;48.126;7.816;2023-09-12T05:08:23;7.07;;;5.38;;
79566;SDS011;69030;48.126;7.816;2023-09-12T05:10:49;8.23;;;5.15;;
79566;SDS011;69030;48.126;7.816;2023-09-12T05:13:15;9.85;;;7.00;;
79566;SDS011;69030;48.126;7.816;2023-09-12T05:15:40;7.85;;;5.95;;
79566;SDS011;69030;48.126;7.816;2023-09-12T05:18:06;10.25;;;6.00;;
79566;SDS011;69030;48.126;7.816;2023-09-12T05:20:32;10.35;;;6.70;;
79566;SDS011;69030;48.126;7.816;2023-09-12T05:22:58;10.63;;;6.18;;
79566;SDS011;69030;48.126;7.816;2023-09-12T05:25:24;7.47;;;5.82;;
79566;SDS011;69030;48.126;7.816;2023-09-12T05:27:52;8.82;;;6.28;;
79566;SDS011;69030;48.126;7.816;2023-09-12T05:30:17;9.48;;;6.68;;
79566;SDS011;69030;48.126;7.816;2023-09-12T05:32:44;9.40;;;6.47;;
79566;SDS011;69030;48.126;7.816;2023-09-12T05:35:11;8.18;;;5.90;;
79566;SDS011;69030;48.126;7.816;2023-09-12T05:37:36;9.95;;;5.70;;
79566;SDS011;69030;48.126;7.816;2023-09-12T05:40:02;11.60;;;6.18;;
79566;SDS011;69030;48.126;7.816;2023-09-12T05:42:28;10.15;;;6.03;;
79566;SDS011;69030;48.126;7.816;2023-09-12T05:44:53;9.68;;;6.43;;
79566;SDS011;69030;48.126;7.816;2023-09-12T05:47:21;12.32;;;5.70;;
79566;SDS011;69030;48.126;7.816;2023-09-12T05:49:48;9.13;;;6.35;;
79566;SDS011;69030;48.126;7.816;2023-09-12T05:52:13;15.38;;;7.10;;
79566;SDS011;69030;48.126;7.816;2023-09-12T05:54:39;10.13;;;6.63;;
79566;SDS011;69030;48.126;7.816;2023-09-12T05:57:10;10.30;;;6.07;;
79566;SDS011;69030;48.126;7.816;2023-09-12T05:59:37;10.43;;;6.65;;
79566;SDS011;69030;48.126;7.816;2023-09-12T06:02:03;9.57;;;6.80;;
79566;SDS011;69030;48.126;7.816;2023-09-12T06:04:35;13.90;;;6.50;;
79566;SDS011;69030;48.126;7.816;2023-09-12T06:07:03;11.02;;;6.40;;
79566;SDS011;69030;48.126;7.816;2023-09-12T06:09:29;11.80;;;7.22;;
79566;SDS011;69030;48.126;7.816;2023-09-12T06:11:55;10.75;;;7.35;;
79566;SDS011;69030;48.126;7.816;2023-09-12T06:14:20;12.75;;;7.60;;
79566;SDS011;69030;48.126;7.816;2023-09-12T06:16:46;11.18;;;7.38;;
79566;SDS011;69030;48.126;7.816;2023-09-12T06:19:11;9.60;;;6.45;;
79566;SDS011;69030;48.126;7.816;2023-09-12T06:21:37;24.33;;;6.50;;
79566;SDS011;69030;48.126;7.816;2023-09-12T06:24:13;15.90;;;7.45;;
79566;SDS011;69030;48.126;7.816;2023-09-12T06:26:40;14.27;;;6.22;;
79566;SDS011;69030;48.126;7.816;2023-09-12T06:29:08;13.98;;;6.70;;
79566;SDS011;69030;48.126;7.816;2023-09-12T06:31:34;15.00;;;7.60;;
79566;SDS011;69030;48.126;7.816;2023-09-12T06:34:01;9.13;;;5.20;;
79566;SDS011;69030;48.126;7.816;2023-09-12T06:36:27;8.85;;;6.22;;
79566;SDS011;69030;48.126;7.816;2023-09-12T06:38:54;10.70;;;6.53;;
79566;SDS011;69030;48.126;7.816;2023-09-12T06:41:21;8.80;;;7.53;;
79566;SDS011;69030;48.126;7.816;2023-09-12T06:43:46;9.02;;;5.80;;
79566;SDS011;69030;48.126;7.816;2023-09-12T06:46:12;10.00;;;6.93;;
79566;SDS011;69030;48.126;7.816;2023-09-12T06:48:37;14.18;;;6.50;;
79566;SDS011;69030;48.126;7.816;2023-09-12T06:51:08;10.20;;;6.15;;
79566;SDS011;69030;48.126;7.816;2023-09-12T06:53:34;8.90;;;6.50;;
79566;SDS011;69030;48.126;7.816;2023-09-12T06:56:03;10.13;;;6.20;;
79566;SDS011;69030;48.126;7.816;2023-09-12T06:58:29;10.20;;;6.00;;
79566;SDS011;69030;48.126;7.816;2023-09-12T07:00:55;8.35;;;5.28;;
79566;SDS011;69030;48.126;7.816;2023-09-12T07:03:21;11.25;;;5.05;;
79566;SDS011;69030;48.126;7.816;2023-09-12T07:05:49;8.23;;;5.40;;
79566;SDS011;69030;48.126;7.816;2023-09-12T07:08:14;8.95;;;6.15;;
79566;SDS011;69030;48.126;7.816;2023-09-12T07:10:43;7.85;;;5.18;;
79566;SDS011;69030;48.126;7.816;2023-09-12T07:13:10;9.95;;;5.50;;
79566;SDS011;69030;48.126;7.816;2023-09-12T07:15:37;9.68;;;5.72;;
79566;SDS011;69030;48.126;7.816;2023-09-12T07:18:03;9.23;;;5.18;;
79566;SDS011;69030;48.126;7.816;2023-09-12T07:20:30;8.32;;;5.55;;
79566;SDS011;69030;48.126;7.816;2023-09-12T07:22:56;10.30;;;5.57;;
79566;SDS011;69030;48.126;7.816;2023-09-12T07:25:21;8.23;;;5.82;;
79566;SDS011;69030;48.126;7.816;2023-09-12T07:27:49;15.77;;;6.03;;
79566;SDS011;69030;48.126;7.816;2023-09-12T07:30:15;10.48;;;6.38;;
79566;SDS011;69030;48.126;7.816;2023-09-12T07:32:40;11.48;;;6.32;;
79566;SDS011;69030;48.126;7.816;2023-09-12T07:35:06;10.85;;;6.35;;
79566;SDS011;69030;48.126;7.816;2023-09-12T07:37:31;7.57;;;5.78;;
79566;SDS011;69030;48.126;7.816;2023-09-12T07:39:57;9.07;;;6.10;;
79566;SDS011;69030;48.126;7.816;2023-09-12T07:42:22;9.48;;;6.95;;
79566;SDS011;69030;48.126;7.816;2023-09-12T07:44:52;10.93;;;7.15;;
79566;SDS011;69030;48.126;7.816;2023-09-12T07:47:18;10.18;;;6.65;;
79566;SDS011;69030;48.126;7.816;2023-09-12T07:49:44;14.23;;;6.72;;
79566;SDS011;69030;48.126;7.816;2023-09-12T07:52:09;10.20;;;6.47;;
79566;SDS011;69030;48.126;7.816;2023-09-12T07:54:36;11.20;;;6.43;;
79566;SDS011;69030;48.126;7.816;2023-09-12T07:57:02;13.10;;;6.30;;
79566;SDS011;69030;48.126;7.816;2023-09-12T08:02:03;11.40;;;5.47;;
79566;SDS011;69030;48.126;7.816;2023-09-12T08:04:29;13.98;;;8.50;;
79566;SDS011;69030;48.126;7.816;2023-09-12T08:06:55;12.75;;;7.75;;
79566;SDS011;69030;48.126;7.816;2023-09-12T08:09:21;14.20;;;7.53;;
79566;SDS011;69030;48.126;7.816;2023-09-12T08:11:47;9.70;;;6.80;;
79566;SDS011;69030;48.126;7.816;2023-09-12T08:14:12;10.38;;;6.60;;
79566;SDS011;69030;48.126;7.816;2023-09-12T08:16:38;12.85;;;7.68;;
79566;SDS011;69030;48.126;7.816;2023-09-12T08:19:03;15.35;;;6.82;;
79566;SDS011;69030;48.126;7.816;2023-09-12T08:21:29;14.40;;;6.90;;
79566;SDS011;69030;48.126;7.816;2023-09-12T08:23:55;10.25;;;6.28;;
79566;SDS011;69030;48.126;7.816;2023-09-12T08:26:20;11.70;;;6.07;;
79566;SDS011;69030;48.126;7.816;2023-09-12T08:28:45;13.43;;;6.32;;
79566;SDS011;69030;48.126;7.816;2023-09-12T08:31:11;8.60;;;5.80;;
79566;SDS011;69030;48.126;7.816;2023-09-12T08:33:36;10.65;;;6.20;;
79566;SDS011;69030;48.126;7.816;2023-09-12T08:36:01;7.97;;;5.90;;
79566;SDS011;69030;48.126;7.816;2023-09-12T08:38:27;8.10;;;6.70;;
79566;SDS011;69030;48.126;7.816;2023-09-12T08:40:53;7.63;;;6.20;;
79566;SDS011;69030;48.126;7.816;2023-09-12T08:43:18;9.13;;;5.65;;
79566;SDS011;69030;48.126;7.816;2023-09-12T08:45:45;7.38;;;5.43;;
79566;SDS011;69030;48.126;7.816;2023-09-12T08:48:11;8.50;;;5.93;;
79566;SDS011;69030;48.126;7.816;2023-09-12T08:50:37;9.13;;;5.90;;
79566;SDS011;69030;48.126;7.816;2023-09-12T08:53:03;8.68;;;5.55;;
79566;SDS011;69030;48.126;7.816;2023-09-12T08:55:28;10.25;;;7.45;;
79566;SDS011;69030;48.126;7.816;2023-09-12T08:57:55;9.98;;;6.07;;
79566;SDS011;69030;48.126;7.816;2023-09-12T09:00:21;7.00;;;5.25;;
79566;SDS011;69030;48.126;7.816;2023-09-12T09:02:47;8.50;;;7.15;;
79566;SDS011;69030;48.126;7.816;2023-09-12T09:05:13;9.30;;;6.47;;
79566;SDS011;69030;48.126;7.816;2023-09-12T09:07:39;9.25;;;5.63;;
79566;SDS011;69030;48.126;7.816;2023-09-12T09:10:06;9.75;;;6.10;;
79566;SDS011;69030;48.126;7.816;2023-09-12T09:14:59;10.77;;;5.40;;
79566;SDS011;69030;48.126;7.816;2023-09-12T09:17:24;7.95;;;6.05;;
79566;SDS011;69030;48.126;7.816;2023-09-12T09:19:50;10.68;;;6.43;;
79566;SDS011;69030;48.126;7.816;2023-09-12T09:22:16;11.75;;;6.40;;
79566;SDS011;69030;48.126;7.816;2023-09-12T09:24:41;9.98;;;5.47;;
79566;SDS011;69030;48.126;7.816;2023-09-12T09:27:08;8.68;;;5.75;;
79566;SDS011;69030;48.126;7.816;2023-09-12T09:29:45;10.07;;;5.68;;
79566;SDS011;69030;48.126;7.816;2023-09-12T09:32:16;8.77;;;5.85;;
79566;SDS011;69030;48.126;7.816;2023-09-12T09:34:42;13.77;;;5.93;;
79566;SDS011;69030;48.126;7.816;2023-09-12T09:37:08;8.85;;;6.15;;
79566;SDS011;69030;48.126;7.816;2023-09-12T09:39:34;7.53;;;5.57;;
79566;SDS011;69030;48.126;7.816;2023-09-12T09:42:03;11.07;;;5.35;;
79566;SDS011;69030;48.126;7.816;2023-09-12T09:44:28;6.35;;;5.28;;
79566;SDS011;69030;48.126;7.816;2023-09-12T09:46:59;9.32;;;5.53;;
79566;SDS011;69030;48.126;7.816;2023-09-12T09:49:27;9.95;;;6.53;;
79566;SDS011;69030;48.126;7.816;2023-09-12T09:51:52;8.73;;;6.20;;
79566;SDS011;69030;48.126;7.816;2023-09-12T09:54:19;8.00;;;5.47;;
79566;SDS011;69030;48.126;7.816;2023-09-12T09:56:49;11.35;;;6.03;;
79566;SDS011;69030;48.126;7.816;2023-09-12T09:59:19;10.52;;;5.38;;
79566;SDS011;69030;48.126;7.816;2023-09-12T10:01:47;9.73;;;6.53;;
79566;SDS011;69030;48.126;7.816;2023-09-12T10:04:14;7.93;;;5.38;;
79566;SDS011;69030;48.126;7.816;2023-09-12T10:06:41;7.72;;;5.18;;
79566;SDS011;69030;48.126;7.816;2023-09-12T10:09:10;7.28;;;4.88;;
79566;SDS011;69030;48.126;7.816;2023-09-12T10:11:37;9.85;;;5.20;;
79566;SDS011;69030;48.126;7.816;2023-09-12T10:14:05;9.18;;;7.03;;
79566;SDS011;69030;48.126;7.816;2023-09-12T10:16:32;8.75;;;5.30;;
79566;SDS011;69030;48.126;7.816;2023-09-12T10:24:28;9.10;;;4.00;;
79566;SDS011;69030;48.126;7.816;2023-09-12T10:26:55;13.70;;;4.60;;
79566;SDS011;69030;48.126;7.816;2023-09-12T10:29:20;6.90;;;4.32;;
79566;SDS011;69030;48.126;7.816;2023-09-12T10:31:49;7.68;;;4.88;;
79566;SDS011;69030;48.126;7.816;2023-09-12T10:34:15;7.43;;;4.25;;
79566;SDS011;69030;48.126;7.816;2023-09-12T10:36:42;7.35;;;4.97;;
79566;SDS011;69030;48.126;7.816;2023-09-12T10:39:09;8.30;;;4.55;;
79566;SDS011;69030;48.126;7.816;2023-09-12T10:44:02;7.13;;;4.15;;
79566;SDS011;69030;48.126;7.816;2023-09-12T10:46:35;10.30;;;4.45;;
79566;SDS011;69030;48.126;7.816;2023-09-12T10:49:02;16.15;;;4.45;;
79566;SDS011;69030;48.126;7.816;2023-09-12T10:51:30;9.77;;;3.78;;
79566;SDS011;69030;48.126;7.816;2023-09-12T10:53:57;7.65;;;4.07;;
79566;SDS011;69030;48.126;7.816;2023-09-12T10:56:23;6.25;;;3.95;;
79566;SDS011;69030;48.126;7.816;2023-09-12T11:01:31;7.03;;;3.70;;
79566;SDS011;69030;48.126;7.816;2023-09-12T11:03:58;6.95;;;4.80;;
79566;SDS011;69030;48.126;7.816;2023-09-12T11:06:30;6.55;;;3.78;;
79566;SDS011;69030;48.126;7.816;2023-09-12T11:11:39;5.32;;;4.32;;
79566;SDS011;69030;48.126;7.816;2023-09-12T11:14:11;5.30;;;3.17;;
79566;SDS011;69030;48.126;7.816;2023-09-12T11:16:36;5.72;;;3.50;;
79566;SDS011;69030;48.126;7.816;2023-09-12T11:19:18;5.57;;;3.15;;
79566;SDS011;69030;48.126;7.816;2023-09-12T11:21:53;5.03;;;3.47;;
79566;SDS011;69030;48.126;7.816;2023-09-12T11:24:20;5.22;;;3.25;;
79566;SDS011;69030;48.126;7.816;2023-09-12T11:26:54;4.65;;;3.08;;
79566;SDS011;69030;48.126;7.816;2023-09-12T11:29:20;6.03;;;3.22;;
79566;SDS011;69030;48.126;7.816;2023-09-12T11:31:56;5.53;;;3.47;;
79566;SDS011;69030;48.126;7.816;2023-09-12T11:34:26;6.07;;;3.25;;
79566;SDS011;69030;48.126;7.816;2023-09-12T11:36:54;6.18;;;3.17;;
79566;SDS011;69030;48.126;7.816;2023-09-12T11:39:25;6.82;;;3.30;;
79566;SDS011;69030;48.126;7.816;2023-09-12T11:41:58;6.07;;;2.95;;
79566;SDS011;69030;48.126;7.816;2023-09-12T11:44:25;6.50;;;3.58;;
79566;SDS011;69030;48.126;7.816;2023-09-12T11:46:56;5.85;;;3.55;;
79566;SDS011;69030;48.126;7.816;2023-09-12T11:49:28;4.90;;;3.20;;
79566;SDS011;69030;48.126;7.816;2023-09-12T11:52:08;9.90;;;4.00;;
79566;SDS011;69030;48.126;7.816;2023-09-12T11:54:41;4.63;;;3.85;;
79566;SDS011;69030;48.126;7.816;2023-09-12T11:57:08;6.43;;;2.92;;
79566;SDS011;69030;48.126;7.816;2023-09-12T11:59:38;6.97;;;3.30;;
79566;SDS011;69030;48.126;7.816;2023-09-12T12:02:07;6.80;;;3.10;;
79566;SDS011;69030;48.126;7.816;2023-09-12T12:04:33;4.50;;;3.67;;
79566;SDS011;69030;48.126;7.816;2023-09-12T12:06:59;4.88;;;4.38;;
79566;SDS011;69030;48.126;7.816;2023-09-12T12:09:26;4.50;;;3.53;;
79566;SDS011;69030;48.126;7.816;2023-09-12T12:11:51;6.95;;;3.65;;
79566;SDS011;69030;48.126;7.816;2023-09-12T12:14:17;7.38;;;5.47;;
79566;SDS011;69030;48.126;7.816;2023-09-12T12:19:10;9.07;;;3.85;;
79566;SDS011;69030;48.126;7.816;2023-09-12T12:21:39;6.63;;;3.50;;
79566;SDS011;69030;48.126;7.816;2023-09-12T12:24:10;5.75;;;3.25;;
79566;SDS011;69030;48.126;7.816;2023-09-12T12:26:37;7.28;;;4.43;;
79566;SDS011;69030;48.126;7.816;2023-09-12T12:29:04;6.47;;;5.07;;
79566;SDS011;69030;48.126;7.816;2023-09-12T12:31:29;5.30;;;3.38;;
79566;SDS011;69030;48.126;7.816;2023-09-12T12:33:55;6.32;;;3.50;;
79566;SDS011;69030;48.126;7.816;2023-09-12T12:36:21;6.78;;;3.28;;
79566;SDS011;69030;48.126;7.816;2023-09-12T12:38:48;8.18;;;3.80;;
79566;SDS011;69030;48.126;7.816;2023-09-12T12:41:15;5.82;;;3.45;;
79566;SDS011;69030;48.126;7.816;2023-09-12T12:43:49;7.88;;;5.05;;
79566;SDS011;69030;48.126;7.816;2023-09-12T12:46:23;4.80;;;3.35;;
79566;SDS011;69030;48.126;7.816;2023-09-12T12:48:50;7.10;;;3.88;;
79566;SDS011;69030;48.126;7.816;2023-09-12T12:51:25;5.47;;;3.58;;
79566;SDS011;69030;48.126;7.816;2023-09-12T12:53:51;5.57;;;3.38;;
79566;SDS011;69030;48.126;7.816;2023-09-12T12:56:19;5.65;;;4.28;;
79566;SDS011;69030;48.126;7.816;2023-09-12T12:58:49;5.47;;;3.17;;
79566;SDS011;69030;48.126;7.816;2023-09-12T13:01:20;10.95;;;4.53;;
79566;SDS011;69030;48.126;7.816;2023-09-12T13:03:46;5.35;;;3.50;;
79566;SDS011;69030;48.126;7.816;2023-09-12T13:06:12;7.68;;;3.45;;
79566;SDS011;69030;48.126;7.816;2023-09-12T13:08:44;5.32;;;3.60;;
79566;SDS011;69030;48.126;7.816;2023-09-12T13:13:38;4.85;;;3.22;;
79566;SDS011;69030;48.126;7.816;2023-09-12T13:16:04;8.20;;;3.50;;
79566;SDS011;69030;48.126;7.816;2023-09-12T13:18:33;7.47;;;3.80;;
79566;SDS011;69030;48.126;7.816;2023-09-12T13:20:59;5.80;;;3.40;;
79566;SDS011;69030;48.126;7.816;2023-09-12T13:23:25;4.38;;;2.78;;
79566;SDS011;69030;48.126;7.816;2023-09-12T13:25:51;3.72;;;2.58;;
79566;SDS011;69030;48.126;7.816;2023-09-12T13:28:17;6.32;;;2.90;;
79566;SDS011;69030;48.126;7.816;2023-09-12T13:30:42;3.50;;;2.47;;
79566;SDS011;69030;48.126;7.816;2023-09-12T13:33:08;3.45;;;2.20;;
79566;SDS011;69030;48.126;7.816;2023-09-12T13:35:33;4.07;;;2.47;;
79566;SDS011;69030;48.126;7.816;2023-09-12T13:38:00;5.30;;;2.72;;
79566;SDS011;69030;48.126;7.816;2023-09-12T13:40:25;4.55;;;2.10;;
79566;SDS011;69030;48.126;7.816;2023-09-12T13:42:52;4.60;;;2.25;;
79566;SDS011;69030;48.126;7.816;2023-09-12T13:45:18;6.35;;;2.63;;
79566;SDS011;69030;48.126;7.816;2023-09-12T13:47:45;2.47;;;1.63;;
79566;SDS011;69030;48.126;7.816;2023-09-12T13:50:11;5.45;;;1.83;;
79566;SDS011;69030;48.126;7.816;2023-09-12T13:52:37;6.03;;;1.85;;
79566;SDS011;69030;48.126;7.816;2023-09-12T13:55:02;4.57;;;1.17;;
79566;SDS011;69030;48.126;7.816;2023-09-12T13:57:28;7.40;;;2.33;;
79566;SDS011;69030;48.126;7.816;2023-09-12T13:59:54;5.65;;;1.55;;
79566;SDS011;69030;48.126;7.816;2023-09-12T14:02:20;3.92;;;1.80;;
79566;SDS011;69030;48.126;7.816;2023-09-12T14:04:46;3.50;;;1.77;;
79566;SDS011;69030;48.126;7.816;2023-09-12T14:07:11;5.63;;;1.55;;
79566;SDS011;69030;48.126;7.816;2023-09-12T14:09:37;4.05;;;1.73;;
79566;SDS011;69030;48.126;7.816;2023-09-12T14:12:04;5.35;;;1.38;;
79566;SDS011;69030;48.126;7.816;2023-09-12T14:14:31;4.07;;;1.95;;
79566;SDS011;69030;48.126;7.816;2023-09-12T14:16:56;3.90;;;1.80;;
79566;SDS011;69030;48.126;7.816;2023-09-12T14:19:22;3.83;;;1.45;;
79566;SDS011;69030;48.126;7.816;2023-09-12T14:22:40;2.53;;;1.63;;
79566;SDS011;69030;48.126;7.816;2023-09-12T14:25:11;4.03;;;1.92;;
79566;SDS011;69030;48.126;7.816;2023-09-12T14:27:45;3.28;;;2.10;;
79566;SDS011;69030;48.126;7.816;2023-09-12T14:30:13;2.45;;;1.52;;
79566;SDS011;69030;48.126;7.816;2023-09-12T14:32:39;2.60;;;1.60;;
79566;SDS011;69030;48.126;7.816;2023-09-12T14:35:04;3.47;;;2.38;;
79566;SDS011;69030;48.126;7.816;2023-09-12T14:37:33;3.03;;;1.80;;
79566;SDS011;69030;48.126;7.816;2023-09-12T14:40:00;2.60;;;1.92;;
79566;SDS011;69030;48.126;7.816;2023-09-12T14:42:29;4.45;;;1.58;;
79566;SDS011;69030;48.126;7.816;2023-09-12T14:44:56;3.20;;;2.03;;
79566;SDS011;69030;48.126;7.816;2023-09-12T14:47:22;5.90;;;2.35;;
79566;SDS011;69030;48.126;7.816;2023-09-12T14:49:48;2.80;;;1.95;;
79566;SDS011;69030;48.126;7.816;2023-09-12T14:52:13;3.65;;;1.90;;
79566;SDS011;69030;48.126;7.816;2023-09-12T14:54:38;3.67;;;2.38;;
79566;SDS011;69030;48.126;7.816;2023-09-12T14:57:04;3.30;;;2.20;;
79566;SDS011;69030;48.126;7.816;2023-09-12T14:59:29;5.57;;;2.70;;
79566;SDS011;69030;48.126;7.816;2023-09-12T15:01:55;5.07;;;2.22;;
79566;SDS011;69030;48.126;7.816;2023-09-12T15:04:20;4.35;;;2.10;;
79566;SDS011;69030;48.126;7.816;2023-09-12T15:06:46;3.38;;;1.70;;
79566;SDS011;69030;48.126;7.816;2023-09-12T15:09:11;3.47;;;2.33;;
79566;SDS011;69030;48.126;7.816;2023-09-12T15:11:37;5.07;;;2.33;;
79566;SDS011;69030;48.126;7.816;2023-09-12T15:14:02;3.08;;;2.42;;
79566;SDS011;69030;48.126;7.816;2023-09-12T15:16:28;4.03;;;2.58;;